createdAt,value
2023-05-21T00:00:30.175Z,7.30
2023-05-21T00:03:17.591Z,6.80
2023-05-21T00:05:46.503Z,7.20
2023-05-21T00:08:13.899Z,7.30
2023-05-21T00:10:40.963Z,7.00
2023-05-21T00:13:09.069Z,6.80
2023-05-21T00:15:36.668Z,7.20
2023-05-21T00:18:03.998Z,7.40
2023-05-21T00:20:35.115Z,7.30
2023-05-21T00:23:04.965Z,7.70
2023-05-21T00:25:32.095Z,7.30
2023-05-21T00:27:59.236Z,7.30
2023-05-21T00:30:26.317Z,7.20
2023-05-21T00:32:53.439Z,7.60
2023-05-21T00:35:20.558Z,7.00
2023-05-21T00:37:47.761Z,7.50
2023-05-21T00:40:15.857Z,7.90
2023-05-21T00:42:47.440Z,7.00
2023-05-21T00:45:14.669Z,7.20
2023-05-21T00:47:43.473Z,7.30
2023-05-21T00:50:11.600Z,7.30
2023-05-21T00:52:41.288Z,7.10
2023-05-21T00:55:09.437Z,7.50
2023-05-21T00:57:36.931Z,7.80
2023-05-21T01:00:08.350Z,7.70
2023-05-21T01:02:36.645Z,7.60
2023-05-21T01:05:07.540Z,7.30
2023-05-21T01:07:38.464Z,7.10
2023-05-21T01:10:08.080Z,7.60
2023-05-21T01:12:37.593Z,7.30
2023-05-21T01:15:05.451Z,7.20
2023-05-21T01:17:33.548Z,7.60
2023-05-21T01:20:01.437Z,6.80
2023-05-21T01:22:31.918Z,7.60
2023-05-21T01:25:02.240Z,7.10
2023-05-21T01:27:29.524Z,7.70
2023-05-21T01:29:57.018Z,6.90
2023-05-21T01:32:46.090Z,7.80
2023-05-21T01:35:54.724Z,7.10
2023-05-21T01:38:50.465Z,6.80
2023-05-21T01:41:19.074Z,6.70
2023-05-21T01:43:47.158Z,6.90
2023-05-21T01:46:17.841Z,7.10
2023-05-21T01:48:46.400Z,6.90
2023-05-21T01:51:14.265Z,7.40
2023-05-21T01:53:41.607Z,6.50
2023-05-21T01:56:08.857Z,7.10
2023-05-21T01:58:36.751Z,7.00
2023-05-21T02:01:04.631Z,7.40
2023-05-21T02:03:31.894Z,7.20
2023-05-21T02:05:59.068Z,7.60
2023-05-21T02:08:27.444Z,6.90
2023-05-21T02:10:55.151Z,6.90
2023-05-21T02:13:25.786Z,7.30
2023-05-21T02:15:54.171Z,6.90
2023-05-21T02:18:21.653Z,7.00
2023-05-21T02:20:48.792Z,6.60
2023-05-21T02:23:16.066Z,6.50
2023-05-21T02:25:43.516Z,6.80
2023-05-21T02:28:10.537Z,7.50
2023-05-21T02:30:37.869Z,8.10
2023-05-21T02:33:05.058Z,7.10
2023-05-21T02:35:35.939Z,6.90
2023-05-21T02:38:03.269Z,6.90
2023-05-21T02:40:31.211Z,6.40
2023-05-21T02:42:58.291Z,7.00
2023-05-21T02:45:25.654Z,7.00
2023-05-21T02:47:53.077Z,6.70
2023-05-21T02:50:21.881Z,7.00
2023-05-21T02:52:54.014Z,7.00
2023-05-21T02:55:22.239Z,6.70
2023-05-21T02:57:49.249Z,7.00
2023-05-21T03:00:16.775Z,7.10
2023-05-21T03:02:44.014Z,6.50
2023-05-21T03:05:11.405Z,6.80
2023-05-21T03:07:38.573Z,6.30
2023-05-21T03:10:06.165Z,6.20
2023-05-21T03:12:33.213Z,6.40
2023-05-21T03:15:00.356Z,6.40
2023-05-21T03:17:28.151Z,6.50
2023-05-21T03:19:55.697Z,6.20
2023-05-21T03:22:22.727Z,6.40
2023-05-21T03:24:50.308Z,6.60
2023-05-21T03:27:18.056Z,6.60
2023-05-21T03:30:09.927Z,6.30
2023-05-21T03:32:47.383Z,6.20
2023-05-21T03:35:14.658Z,6.80
2023-05-21T03:37:41.831Z,6.20
2023-05-21T03:40:10.170Z,6.20
2023-05-21T03:42:37.383Z,6.10
2023-05-21T03:45:04.896Z,6.80
2023-05-21T03:48:02.652Z,6.30
2023-05-21T03:50:30.548Z,6.10
2023-05-21T03:52:57.618Z,6.30
2023-05-21T03:55:24.959Z,6.30
2023-05-21T03:57:52.028Z,5.90
2023-05-21T04:00:19.141Z,6.10
2023-05-21T04:02:47.857Z,6.00
2023-05-21T04:05:16.515Z,6.00
2023-05-21T04:07:45.895Z,6.10
2023-05-21T04:10:13.444Z,6.10
2023-05-21T04:12:40.603Z,6.50
2023-05-21T04:15:08.123Z,6.40
2023-05-21T04:17:35.512Z,6.40
2023-05-21T04:20:03.591Z,6.10
2023-05-21T04:22:30.860Z,6.30
2023-05-21T04:24:59.163Z,6.60
2023-05-21T04:27:29.422Z,6.10
2023-05-21T04:29:57.685Z,6.60
2023-05-21T04:32:24.866Z,6.70
2023-05-21T04:34:51.958Z,7.10
2023-05-21T04:37:21.613Z,6.90
2023-05-21T04:39:48.669Z,7.10
2023-05-21T04:42:15.801Z,6.90
2023-05-21T04:44:43.873Z,6.10
2023-05-21T04:47:11.914Z,5.60
2023-05-21T04:49:38.961Z,5.40
2023-05-21T04:52:05.957Z,5.60
2023-05-21T04:54:33.174Z,6.60
2023-05-21T04:57:01.101Z,5.60
2023-05-21T04:59:28.293Z,6.10
2023-05-21T05:01:55.507Z,5.80
2023-05-21T05:04:22.623Z,5.40
2023-05-21T05:06:50.098Z,6.00
2023-05-21T05:09:17.436Z,5.40
2023-05-21T05:11:44.935Z,5.80
2023-05-21T05:14:11.948Z,5.90
2023-05-21T05:16:39.357Z,5.70
2023-05-21T05:19:07.370Z,5.70
2023-05-21T05:21:34.594Z,5.60
2023-05-21T05:24:01.668Z,5.40
2023-05-21T05:26:30.058Z,5.90
2023-05-21T05:28:57.341Z,5.50
2023-05-21T05:31:24.555Z,6.00
2023-05-21T05:33:52.607Z,5.50
2023-05-21T05:36:20.701Z,5.60
2023-05-21T05:38:47.721Z,5.00
2023-05-21T05:41:14.967Z,5.10
2023-05-21T05:43:42.132Z,4.90
2023-05-21T05:46:09.500Z,5.60
2023-05-21T05:48:36.632Z,5.60
2023-05-21T05:51:03.870Z,5.80
2023-05-21T05:53:31.862Z,5.60
2023-05-21T05:55:59.393Z,5.00
2023-05-21T05:58:26.547Z,4.70
2023-05-21T06:00:59.557Z,5.40
2023-05-21T06:03:28.536Z,4.90
2023-05-21T06:05:56.830Z,5.40
2023-05-21T06:08:24.344Z,5.10
2023-05-21T06:10:52.565Z,4.60
2023-05-21T06:13:19.748Z,4.60
2023-05-21T06:15:46.849Z,5.40
2023-05-21T06:18:15.424Z,4.70
2023-05-21T06:20:42.673Z,5.10
2023-05-21T06:23:09.920Z,5.30
2023-05-21T06:25:37.582Z,5.40
2023-05-21T06:28:04.958Z,5.00
2023-05-21T06:30:33.117Z,5.00
2023-05-21T06:33:00.711Z,5.10
2023-05-21T06:35:27.984Z,5.00
2023-05-21T06:37:55.267Z,5.10
2023-05-21T06:40:22.741Z,5.00
2023-05-21T06:42:51.979Z,5.30
2023-05-21T06:45:37.743Z,5.00
2023-05-21T06:48:23.478Z,4.80
2023-05-21T06:50:51.236Z,5.10
2023-05-21T06:53:18.667Z,4.80
2023-05-21T06:55:45.869Z,4.70
2023-05-21T06:58:36.323Z,4.80
2023-05-21T07:01:04.780Z,5.40
2023-05-21T07:03:32.047Z,4.60
2023-05-21T07:05:59.375Z,4.60
2023-05-21T07:08:26.762Z,5.10
2023-05-21T07:10:55.787Z,4.80
2023-05-21T07:13:23.145Z,4.90
2023-05-21T07:15:50.346Z,4.60
2023-05-21T07:18:18.495Z,4.70
2023-05-21T07:20:45.646Z,5.10
2023-05-21T07:23:14.658Z,5.50
2023-05-21T07:25:41.868Z,5.20
2023-05-21T07:28:08.899Z,5.10
2023-05-21T07:30:36.249Z,5.70
2023-05-21T07:33:05.325Z,5.90
2023-05-21T07:35:32.557Z,5.60
2023-05-21T07:37:59.654Z,5.20
2023-05-21T07:40:26.821Z,5.40
2023-05-21T07:42:54.888Z,5.30
2023-05-21T07:45:22.194Z,5.30
2023-05-21T07:47:49.547Z,5.10
2023-05-21T07:50:17.001Z,4.60
2023-05-21T07:52:44.262Z,4.60
2023-05-21T07:55:11.566Z,4.80
2023-05-21T07:57:39.180Z,5.40
2023-05-21T08:00:14.952Z,5.10
2023-05-21T08:02:49.295Z,5.00
2023-05-21T08:05:16.611Z,5.50
2023-05-21T08:07:44.054Z,5.60
2023-05-21T08:10:11.620Z,5.60
2023-05-21T08:12:38.741Z,5.70
2023-05-21T08:15:07.355Z,5.10
2023-05-21T08:17:37.385Z,4.60
2023-05-21T08:20:05.388Z,4.80
2023-05-21T08:22:32.656Z,5.20
2023-05-21T08:25:00.238Z,6.00
2023-05-21T08:27:30.887Z,4.60
2023-05-21T08:29:58.243Z,4.90
2023-05-21T08:32:26.281Z,5.40
2023-05-21T08:34:54.010Z,4.90
2023-05-21T08:37:41.291Z,5.00
2023-05-21T08:40:16.442Z,5.70
2023-05-21T08:42:48.311Z,5.80
2023-05-21T08:45:23.539Z,4.80
2023-05-21T08:47:58.157Z,5.30
2023-05-21T08:50:27.812Z,5.70
2023-05-21T08:52:55.953Z,5.50
2023-05-21T08:55:23.584Z,5.30
2023-05-21T08:57:53.793Z,5.80
2023-05-21T09:00:21.056Z,5.30
2023-05-21T09:02:48.251Z,5.40
2023-05-21T09:05:17.921Z,5.40
2023-05-21T09:08:06.331Z,4.90
2023-05-21T09:11:02.961Z,4.60
2023-05-21T09:13:39.067Z,4.30
2023-05-21T09:16:10.341Z,5.20
2023-05-21T09:18:37.551Z,4.60
2023-05-21T09:21:28.473Z,5.20
2023-05-21T09:24:16.990Z,4.60
2023-05-21T09:26:44.349Z,5.10
2023-05-21T09:29:12.942Z,4.90
2023-05-21T09:31:46.506Z,4.60
2023-05-21T09:34:14.330Z,4.60
2023-05-21T09:36:43.436Z,4.80
2023-05-21T09:39:15.738Z,4.90
2023-05-21T09:41:43.364Z,4.60
2023-05-21T09:44:10.785Z,4.60
2023-05-21T09:46:39.907Z,4.40
2023-05-21T09:49:27.732Z,4.90
2023-05-21T09:51:56.605Z,4.90
2023-05-21T09:54:30.476Z,4.40
2023-05-21T09:56:58.093Z,4.40
2023-05-21T09:59:45.238Z,4.20
2023-05-21T10:02:18.610Z,4.10
2023-05-21T10:04:49.849Z,4.70
2023-05-21T10:07:21.158Z,4.80
2023-05-21T10:09:48.717Z,4.90
2023-05-21T10:12:17.857Z,4.20
2023-05-21T10:14:49.289Z,5.30
2023-05-21T10:17:16.809Z,4.90
2023-05-21T10:19:46.135Z,5.10
2023-05-21T10:22:14.185Z,4.80
2023-05-21T10:24:42.930Z,4.90
2023-05-21T10:27:11.195Z,4.80
2023-05-21T10:29:38.650Z,4.70
2023-05-21T10:32:06.356Z,4.50
2023-05-21T10:34:35.780Z,5.00
2023-05-21T10:37:05.125Z,5.00
2023-05-21T10:39:34.032Z,4.80
2023-05-21T10:42:37.324Z,5.30
2023-05-21T10:45:28.007Z,5.10
2023-05-21T10:48:13.879Z,4.60
2023-05-21T10:51:11.304Z,5.10
2023-05-21T10:54:16.636Z,5.30
2023-05-21T10:57:05.130Z,4.90
2023-05-21T10:59:32.166Z,4.90
2023-05-21T11:01:59.632Z,4.70
2023-05-21T11:04:27.911Z,4.50
2023-05-21T11:06:58.302Z,4.50
2023-05-21T11:09:26.496Z,4.60
2023-05-21T11:11:58.326Z,4.60
2023-05-21T11:14:42.950Z,4.50
2023-05-21T11:17:14.022Z,4.20
2023-05-21T11:19:47.773Z,4.60
2023-05-21T11:22:26.582Z,4.50
2023-05-21T11:24:55.649Z,4.10
2023-05-21T11:27:39.771Z,4.70
2023-05-21T11:30:09.310Z,5.90
2023-05-21T11:32:38.551Z,5.60
2023-05-21T11:35:06.604Z,6.50
2023-05-21T11:37:37.283Z,5.10
2023-05-21T11:40:23.264Z,5.00
2023-05-21T11:42:52.616Z,4.60
2023-05-21T11:45:46.679Z,4.70
2023-05-21T11:48:14.126Z,5.60
2023-05-21T11:50:44.204Z,4.80
2023-05-21T11:53:11.882Z,5.50
2023-05-21T11:55:42.922Z,5.50
2023-05-21T11:58:13.153Z,6.30
2023-05-21T12:00:40.686Z,5.70
2023-05-21T12:03:12.398Z,5.30
2023-05-21T12:05:49.392Z,5.10
2023-05-21T12:08:26.723Z,4.70
2023-05-21T12:11:01.314Z,4.70
2023-05-21T12:13:28.521Z,4.50
2023-05-21T12:15:55.865Z,5.30
2023-05-21T12:18:23.146Z,5.60
2023-05-21T12:20:51.749Z,5.00
2023-05-21T12:23:25.528Z,5.00
2023-05-21T12:25:55.813Z,5.60
2023-05-21T12:28:24.379Z,4.80
2023-05-21T12:30:52.980Z,4.90
2023-05-21T12:33:20.179Z,5.00
2023-05-21T12:35:49.334Z,5.40
2023-05-21T12:38:16.775Z,5.10
2023-05-21T12:40:45.012Z,4.70
2023-05-21T12:43:12.226Z,4.80
2023-05-21T12:45:39.690Z,5.70
2023-05-21T12:48:07.141Z,5.60
2023-05-21T12:50:35.484Z,5.90
2023-05-21T12:53:03.233Z,5.20
2023-05-21T12:55:31.181Z,6.60
2023-05-21T12:58:07.468Z,4.80
2023-05-21T13:00:34.981Z,5.80
2023-05-21T13:03:05.664Z,5.70
2023-05-21T13:05:33.225Z,4.80
2023-05-21T13:08:00.489Z,5.40
2023-05-21T13:10:27.600Z,5.20
2023-05-21T13:12:54.700Z,4.60
2023-05-21T13:15:21.740Z,5.10
2023-05-21T13:17:50.480Z,4.70
2023-05-21T13:20:23.197Z,5.80
2023-05-21T13:22:51.271Z,4.70
2023-05-21T13:25:24.160Z,4.70
2023-05-21T13:27:52.555Z,4.80
2023-05-21T13:30:20.688Z,4.70
2023-05-21T13:32:48.098Z,4.60
2023-05-21T13:35:15.985Z,4.60
2023-05-21T13:37:43.060Z,4.80
2023-05-21T13:40:14.014Z,4.70
2023-05-21T13:42:42.542Z,4.40
2023-05-21T13:45:11.705Z,4.40
2023-05-21T13:47:40.521Z,4.30
2023-05-21T13:50:09.065Z,5.50
2023-05-21T13:52:37.453Z,4.30
2023-05-21T13:55:05.403Z,5.00
2023-05-21T13:57:32.876Z,4.30
2023-05-21T14:00:00.585Z,4.90
2023-05-21T14:02:27.920Z,4.10
2023-05-21T14:04:55.125Z,3.80
2023-05-21T14:07:22.605Z,3.90
2023-05-21T14:09:49.970Z,4.30
2023-05-21T14:12:17.427Z,4.40
2023-05-21T14:14:44.749Z,3.90
2023-05-21T14:17:11.890Z,4.30
2023-05-21T14:19:38.904Z,4.70
2023-05-21T14:22:06.109Z,4.00
2023-05-21T14:24:33.177Z,3.60
2023-05-21T14:27:00.481Z,3.40
2023-05-21T14:29:27.554Z,5.50
2023-05-21T14:31:54.750Z,3.40
2023-05-21T14:34:21.991Z,4.00
2023-05-21T14:36:49.129Z,4.50
2023-05-21T14:39:16.782Z,3.30
2023-05-21T14:41:43.890Z,4.30
2023-05-21T14:44:11.029Z,4.10
2023-05-21T14:46:38.699Z,4.20
2023-05-21T14:49:06.127Z,4.70
2023-05-21T14:51:33.190Z,4.70
2023-05-21T14:54:00.641Z,5.00
2023-05-21T14:56:27.907Z,4.60
2023-05-21T14:58:55.832Z,3.70
2023-05-21T15:01:23.231Z,3.70
2023-05-21T15:03:50.646Z,3.70
2023-05-21T15:06:17.843Z,3.00
2023-05-21T15:08:44.879Z,3.50
2023-05-21T15:11:11.886Z,3.10
2023-05-21T15:13:39.244Z,3.40
2023-05-21T15:16:06.480Z,3.30
2023-05-21T15:18:33.695Z,3.60
2023-05-21T15:21:00.815Z,3.70
2023-05-21T15:23:27.963Z,3.90
2023-05-21T15:25:55.351Z,3.60
2023-05-21T15:28:22.588Z,4.00
2023-05-21T15:30:49.775Z,4.30
2023-05-21T15:33:17.198Z,4.50
2023-05-21T15:35:44.536Z,4.60
2023-05-21T15:38:11.888Z,4.70
2023-05-21T15:40:41.458Z,4.50
2023-05-21T15:43:08.731Z,5.30
2023-05-21T15:45:37.901Z,4.70
2023-05-21T15:48:05.969Z,5.20
2023-05-21T15:50:35.045Z,5.10
2023-05-21T15:53:03.650Z,4.60
2023-05-21T15:55:33.907Z,4.40
2023-05-21T15:58:02.986Z,4.40
2023-05-21T16:00:30.251Z,4.40
2023-05-21T16:02:57.869Z,4.90
2023-05-21T16:05:25.856Z,5.50
2023-05-21T16:07:53.451Z,5.10
2023-05-21T16:10:21.579Z,5.40
2023-05-21T16:12:48.895Z,5.10
2023-05-21T16:15:16.341Z,5.10
2023-05-21T16:17:43.471Z,5.50
2023-05-21T16:20:11.193Z,6.10
2023-05-21T16:22:38.358Z,6.20
2023-05-21T16:25:06.026Z,5.80
2023-05-21T16:27:34.679Z,5.60
2023-05-21T16:30:02.167Z,6.60
2023-05-21T16:32:29.425Z,5.60
2023-05-21T16:34:56.575Z,4.90
2023-05-21T16:37:23.791Z,4.40
2023-05-21T16:39:50.851Z,4.20
2023-05-21T16:42:17.937Z,4.20
2023-05-21T16:44:45.236Z,4.10
2023-05-21T16:47:12.394Z,5.00
2023-05-21T16:49:39.542Z,4.60
2023-05-21T16:52:06.610Z,5.00
2023-05-21T16:54:33.697Z,5.00
2023-05-21T16:57:00.881Z,4.90
2023-05-21T16:59:28.542Z,5.30
2023-05-21T17:01:55.814Z,5.70
2023-05-21T17:04:23.074Z,5.90
2023-05-21T17:06:50.253Z,5.70
2023-05-21T17:09:18.822Z,5.80
2023-05-21T17:11:46.104Z,5.30
2023-05-21T17:14:17.540Z,4.20
2023-05-21T17:16:50.679Z,3.80
2023-05-21T17:19:17.724Z,4.20
2023-05-21T17:21:44.802Z,3.60
2023-05-21T17:24:11.887Z,4.40
2023-05-21T17:26:39.013Z,3.90
2023-05-21T17:29:06.202Z,4.10
2023-05-21T17:31:33.479Z,4.60
2023-05-21T17:34:00.728Z,5.00
2023-05-21T17:36:28.069Z,5.20
2023-05-21T17:38:55.151Z,5.50
2023-05-21T17:41:23.058Z,5.90
2023-05-21T17:43:53.034Z,7.60
2023-05-21T17:46:20.160Z,5.80
2023-05-21T17:48:47.549Z,4.50
2023-05-21T17:51:14.790Z,4.50
2023-05-21T17:53:42.690Z,4.20
2023-05-21T17:56:10.839Z,4.50
2023-05-21T17:58:37.947Z,4.30
2023-05-21T18:01:05.206Z,4.20
2023-05-21T18:03:32.374Z,4.70
2023-05-21T18:05:59.445Z,4.40
2023-05-21T18:08:26.531Z,4.40
2023-05-21T18:10:53.676Z,4.20
2023-05-21T18:13:20.761Z,4.10
2023-05-21T18:15:47.843Z,3.90
2023-05-21T18:18:19.043Z,3.80
2023-05-21T18:20:48.447Z,4.30
2023-05-21T18:23:15.968Z,4.60
2023-05-21T18:25:43.150Z,4.40
2023-05-21T18:28:10.471Z,5.00
2023-05-21T18:30:37.657Z,4.40
2023-05-21T18:33:05.135Z,5.00
2023-05-21T18:35:33.624Z,4.40
2023-05-21T18:38:00.959Z,4.50
2023-05-21T18:40:30.747Z,4.60
2023-05-21T18:42:58.363Z,4.20
2023-05-21T18:45:25.569Z,4.50
2023-05-21T18:47:52.754Z,4.60
2023-05-21T18:50:20.083Z,4.50
2023-05-21T18:52:47.208Z,4.40
2023-05-21T18:55:14.342Z,4.40
2023-05-21T18:57:41.464Z,4.40
2023-05-21T19:00:09.150Z,4.20
2023-05-21T19:02:36.833Z,4.40
2023-05-21T19:05:04.236Z,5.70
2023-05-21T19:07:31.406Z,5.80
2023-05-21T19:09:59.663Z,4.90
2023-05-21T19:12:28.728Z,4.50
2023-05-21T19:14:55.884Z,4.30
2023-05-21T19:17:23.548Z,4.20
2023-05-21T19:19:55.332Z,4.10
2023-05-21T19:22:26.822Z,4.20
2023-05-21T19:24:54.385Z,4.20
2023-05-21T19:27:21.519Z,4.20
2023-05-21T19:29:48.755Z,4.00
2023-05-21T19:32:16.087Z,4.60
2023-05-21T19:34:43.237Z,3.90
2023-05-21T19:37:10.416Z,4.10
2023-05-21T19:39:42.472Z,3.90
2023-05-21T19:42:09.941Z,4.10
2023-05-21T19:44:40.425Z,4.30
2023-05-21T19:47:07.962Z,3.70
2023-05-21T19:49:35.133Z,3.80
2023-05-21T19:52:02.410Z,4.70
2023-05-21T19:54:29.585Z,4.50
2023-05-21T19:56:57.307Z,3.90
2023-05-21T19:59:24.374Z,4.00
2023-05-21T20:01:51.532Z,4.00
2023-05-21T20:04:18.678Z,3.50
2023-05-21T20:06:58.618Z,4.00
2023-05-21T20:09:25.747Z,3.70
2023-05-21T20:11:52.883Z,4.30
2023-05-21T20:14:20.016Z,3.90
2023-05-21T20:16:47.911Z,2.90
2023-05-21T20:19:15.079Z,2.80
2023-05-21T20:21:42.736Z,3.00
2023-05-21T20:24:10.697Z,2.50
2023-05-21T20:26:39.278Z,2.60
2023-05-21T20:29:07.464Z,3.10
2023-05-21T20:31:34.860Z,3.10
2023-05-21T20:34:08.378Z,2.80
2023-05-21T20:36:36.362Z,3.20
2023-05-21T20:39:04.423Z,2.60
2023-05-21T20:41:38.210Z,3.00
2023-05-21T20:44:06.178Z,4.00
2023-05-21T20:46:37.685Z,4.70
2023-05-21T20:49:05.389Z,4.00
2023-05-21T20:51:32.813Z,3.70
2023-05-21T20:53:59.857Z,3.30
2023-05-21T20:56:40.848Z,3.10
2023-05-21T20:59:10.832Z,3.40
2023-05-21T21:01:40.082Z,3.30
2023-05-21T21:04:07.150Z,3.60
2023-05-21T21:06:37.723Z,3.20
2023-05-21T21:09:04.920Z,3.30
2023-05-21T21:11:32.096Z,3.50
2023-05-21T21:13:59.282Z,3.10
2023-05-21T21:16:26.423Z,3.30
2023-05-21T21:18:53.521Z,3.60
2023-05-21T21:21:21.489Z,3.40
2023-05-21T21:23:48.536Z,3.20
2023-05-21T21:26:17.244Z,3.30
2023-05-21T21:28:46.058Z,3.40
2023-05-21T21:31:13.820Z,3.50
2023-05-21T21:33:40.873Z,3.30
2023-05-21T21:36:11.646Z,3.10
2023-05-21T21:38:38.689Z,3.10
2023-05-21T21:41:07.124Z,3.30
2023-05-21T21:43:34.296Z,2.90
2023-05-21T21:46:01.472Z,3.00
2023-05-21T21:48:28.694Z,2.80
2023-05-21T21:50:56.345Z,3.00
2023-05-21T21:53:23.359Z,3.50
2023-05-21T21:55:50.737Z,3.10
2023-05-21T21:58:17.854Z,3.30
2023-05-21T22:00:44.949Z,3.20
2023-05-21T22:03:14.412Z,3.10
2023-05-21T22:05:42.194Z,3.30
2023-05-21T22:08:09.233Z,3.10
2023-05-21T22:10:37.854Z,3.50
2023-05-21T22:13:05.214Z,3.30
2023-05-21T22:15:32.313Z,3.20
2023-05-21T22:18:01.739Z,3.30
2023-05-21T22:20:28.911Z,3.40
2023-05-21T22:22:59.357Z,3.20
2023-05-21T22:25:26.520Z,3.10
2023-05-21T22:27:53.584Z,3.40
2023-05-21T22:30:20.614Z,3.20
2023-05-21T22:32:47.894Z,3.10
2023-05-21T22:35:15.156Z,3.30
2023-05-21T22:37:42.259Z,3.30
2023-05-21T22:40:09.819Z,3.30
2023-05-21T22:42:37.016Z,3.30
2023-05-21T22:45:05.201Z,3.10
2023-05-21T22:47:32.339Z,3.20
2023-05-21T22:50:00.911Z,3.80
2023-05-21T22:52:28.362Z,3.30
2023-05-21T22:54:57.326Z,3.20
2023-05-21T22:57:24.457Z,2.90
2023-05-21T22:59:51.588Z,3.00
2023-05-21T23:02:18.769Z,3.80
2023-05-21T23:04:47.422Z,3.20
2023-05-21T23:07:14.613Z,3.90
2023-05-21T23:09:41.644Z,3.60
2023-05-21T23:12:09.680Z,3.60
2023-05-21T23:14:36.672Z,3.70
2023-05-21T23:17:04.015Z,3.40
2023-05-21T23:19:32.319Z,4.20
2023-05-21T23:21:59.959Z,4.10
2023-05-21T23:24:28.841Z,4.20
2023-05-21T23:27:01.170Z,4.10
2023-05-21T23:29:29.326Z,4.30
2023-05-21T23:31:56.593Z,4.30
2023-05-21T23:34:24.333Z,4.50
2023-05-21T23:36:51.978Z,4.10
2023-05-21T23:39:19.023Z,4.40
2023-05-21T23:41:46.292Z,4.00
2023-05-21T23:44:15.085Z,4.20
2023-05-21T23:46:45.178Z,4.70
2023-05-21T23:49:12.562Z,4.20
2023-05-21T23:51:39.777Z,4.40
2023-05-21T23:54:07.488Z,4.30
2023-05-21T23:56:34.613Z,4.30
2023-05-21T23:59:01.687Z,4.20
